Cap-Rouge, Canada
Current Conditions -  °F | °C
As of 4:00 PM on Friday 19 Dec 2014 (Local Time) from CYQB Reporting Station
Few Clouds Few Clouds  
Wind Chill:   Ceiling: Unl
Heat Index: 21°   Visibility: 25mi
Dew Point: 14°   Wind: 12mph
Humidity: 74%   Direction: 240°WSW
Pressure: 30.07"   Gusts: NA
Location:  46.75°N, 71.35°W
Report Text: CYQB 192100Z 24010KT 25SM FEW030 M06/M10 A3007 RMK SC1 SC TR SLP188
Loading
Personal Weather Stations






























Interactive Weather Map New forecast layout! Learn more

10-Day Weather Forecast

Advertisements
Track Severe Weather on mobile